sensor_id;sensor_type;location;lat;lon;timestamp;temperature;humidity
75088;HTU21D;63664;44.868;40.600;2023-09-19T00:00:46;11.91;76.01
75088;HTU21D;63664;44.868;40.600;2023-09-19T00:03:13;11.89;76.05
75088;HTU21D;63664;44.868;40.600;2023-09-19T00:05:42;11.87;76.18
75088;HTU21D;63664;44.868;40.600;2023-09-19T00:08:13;11.84;76.24
75088;HTU21D;63664;44.868;40.600;2023-09-19T00:10:39;11.83;76.34
75088;HTU21D;63664;44.868;40.600;2023-09-19T00:13:08;11.79;76.47
75088;HTU21D;63664;44.868;40.600;2023-09-19T00:15:46;11.75;76.56
75088;HTU21D;63664;44.868;40.600;2023-09-19T00:18:18;11.73;76.67
75088;HTU21D;63664;44.868;40.600;2023-09-19T00:20:50;11.72;76.82
75088;HTU21D;63664;44.868;40.600;2023-09-19T00:23:19;11.71;76.86
75088;HTU21D;63664;44.868;40.600;2023-09-19T00:25:46;11.70;76.99
75088;HTU21D;63664;44.868;40.600;2023-09-19T00:28:12;11.68;77.06
75088;HTU21D;63664;44.868;40.600;2023-09-19T00:30:43;11.64;77.21
75088;HTU21D;63664;44.868;40.600;2023-09-19T00:33:09;11.62;77.26
75088;HTU21D;63664;44.868;40.600;2023-09-19T00:35:38;11.61;77.33
75088;HTU21D;63664;44.868;40.600;2023-09-19T00:38:04;11.59;77.43
75088;HTU21D;63664;44.868;40.600;2023-09-19T00:40:34;11.56;77.53
75088;HTU21D;63664;44.868;40.600;2023-09-19T00:43:02;11.55;77.62
75088;HTU21D;63664;44.868;40.600;2023-09-19T00:45:33;11.54;77.68
75088;HTU21D;63664;44.868;40.600;2023-09-19T00:48:02;11.54;77.73
75088;HTU21D;63664;44.868;40.600;2023-09-19T00:50:46;11.49;77.88
75088;HTU21D;63664;44.868;40.600;2023-09-19T00:53:19;11.46;78.01
75088;HTU21D;63664;44.868;40.600;2023-09-19T00:55:49;11.44;78.13
75088;HTU21D;63664;44.868;40.600;2023-09-19T00:58:18;11.44;78.18
75088;HTU21D;63664;44.868;40.600;2023-09-19T01:00:45;11.41;78.23
75088;HTU21D;63664;44.868;40.600;2023-09-19T01:03:14;11.39;77.87
75088;HTU21D;63664;44.868;40.600;2023-09-19T01:05:46;11.31;77.80
75088;HTU21D;63664;44.868;40.600;2023-09-19T01:08:13;11.25;78.15
75088;HTU21D;63664;44.868;40.600;2023-09-19T01:10:57;11.22;78.50
75088;HTU21D;63664;44.868;40.600;2023-09-19T01:16:18;11.18;78.52
75088;HTU21D;63664;44.868;40.600;2023-09-19T01:21:55;11.14;78.82
75088;HTU21D;63664;44.868;40.600;2023-09-19T01:24:36;11.14;78.20
75088;HTU21D;63664;44.868;40.600;2023-09-19T01:30:22;10.99;78.54
75088;HTU21D;63664;44.868;40.600;2023-09-19T01:32:51;10.96;78.72
75088;HTU21D;63664;44.868;40.600;2023-09-19T01:35:18;10.94;78.92
75088;HTU21D;63664;44.868;40.600;2023-09-19T01:37:45;10.94;79.10
75088;HTU21D;63664;44.868;40.600;2023-09-19T01:40:16;10.93;79.25
75088;HTU21D;63664;44.868;40.600;2023-09-19T01:42:58;10.94;79.35
75088;HTU21D;63664;44.868;40.600;2023-09-19T01:51:11;10.88;79.53
75088;HTU21D;63664;44.868;40.600;2023-09-19T01:53:59;10.87;79.71
75088;HTU21D;63664;44.868;40.600;2023-09-19T01:56:34;10.87;79.69
75088;HTU21D;63664;44.868;40.600;2023-09-19T01:59:12;10.85;79.82
75088;HTU21D;63664;44.868;40.600;2023-09-19T02:01:41;10.84;79.90
75088;HTU21D;63664;44.868;40.600;2023-09-19T02:04:10;10.85;79.95
75088;HTU21D;63664;44.868;40.600;2023-09-19T02:06:43;10.82;80.20
75088;HTU21D;63664;44.868;40.600;2023-09-19T02:09:14;10.81;80.16
75088;HTU21D;63664;44.868;40.600;2023-09-19T02:11:41;10.80;80.24
75088;HTU21D;63664;44.868;40.600;2023-09-19T02:14:10;10.77;80.33
75088;HTU21D;63664;44.868;40.600;2023-09-19T02:16:36;10.74;80.45
75088;HTU21D;63664;44.868;40.600;2023-09-19T02:19:03;10.73;80.56
75088;HTU21D;63664;44.868;40.600;2023-09-19T02:21:36;10.71;80.69
75088;HTU21D;63664;44.868;40.600;2023-09-19T02:24:05;10.71;80.71
75088;HTU21D;63664;44.868;40.600;2023-09-19T02:26:34;10.69;80.70
75088;HTU21D;63664;44.868;40.600;2023-09-19T02:29:06;10.66;80.76
75088;HTU21D;63664;44.868;40.600;2023-09-19T02:31:35;10.64;80.92
75088;HTU21D;63664;44.868;40.600;2023-09-19T02:34:01;10.64;81.04
75088;HTU21D;63664;44.868;40.600;2023-09-19T02:36:28;10.63;81.11
75088;HTU21D;63664;44.868;40.600;2023-09-19T02:38:57;10.62;81.14
75088;HTU21D;63664;44.868;40.600;2023-09-19T02:41:25;10.57;81.22
75088;HTU21D;63664;44.868;40.600;2023-09-19T02:43:54;10.53;81.39
75088;HTU21D;63664;44.868;40.600;2023-09-19T02:46:27;10.52;81.46
75088;HTU21D;63664;44.868;40.600;2023-09-19T02:48:53;10.51;81.50
75088;HTU21D;63664;44.868;40.600;2023-09-19T02:51:20;10.50;81.59
75088;HTU21D;63664;44.868;40.600;2023-09-19T02:53:47;10.49;81.66
75088;HTU21D;63664;44.868;40.600;2023-09-19T02:56:14;10.49;81.70
75088;HTU21D;63664;44.868;40.600;2023-09-19T02:58:41;10.48;81.80
75088;HTU21D;63664;44.868;40.600;2023-09-19T03:01:11;10.48;81.90
75088;HTU21D;63664;44.868;40.600;2023-09-19T03:03:40;10.45;81.94
75088;HTU21D;63664;44.868;40.600;2023-09-19T03:06:07;10.41;81.99
75088;HTU21D;63664;44.868;40.600;2023-09-19T03:08:36;10.40;82.13
75088;HTU21D;63664;44.868;40.600;2023-09-19T03:11:11;10.40;82.31
75088;HTU21D;63664;44.868;40.600;2023-09-19T03:13:45;10.42;82.20
75088;HTU21D;63664;44.868;40.600;2023-09-19T03:16:16;10.42;82.29
75088;HTU21D;63664;44.868;40.600;2023-09-19T03:18:42;10.40;82.29
75088;HTU21D;63664;44.868;40.600;2023-09-19T03:21:11;10.41;82.38
75088;HTU21D;63664;44.868;40.600;2023-09-19T03:23:37;10.39;82.46
75088;HTU21D;63664;44.868;40.600;2023-09-19T03:26:04;10.40;82.53
75088;HTU21D;63664;44.868;40.600;2023-09-19T03:28:33;10.40;82.68
75088;HTU21D;63664;44.868;40.600;2023-09-19T03:31:02;10.42;82.68
75088;HTU21D;63664;44.868;40.600;2023-09-19T03:33:31;10.41;82.70
75088;HTU21D;63664;44.868;40.600;2023-09-19T03:36:01;10.42;82.81
75088;HTU21D;63664;44.868;40.600;2023-09-19T03:38:34;10.43;82.81
75088;HTU21D;63664;44.868;40.600;2023-09-19T03:41:05;10.42;82.88
75088;HTU21D;63664;44.868;40.600;2023-09-19T03:43:34;10.45;82.93
75088;HTU21D;63664;44.868;40.600;2023-09-19T03:46:06;10.48;83.07
75088;HTU21D;63664;44.868;40.600;2023-09-19T03:48:35;10.51;83.02
75088;HTU21D;63664;44.868;40.600;2023-09-19T03:51:02;10.52;83.13
75088;HTU21D;63664;44.868;40.600;2023-09-19T03:53:32;10.57;83.19
75088;HTU21D;63664;44.868;40.600;2023-09-19T03:55:58;10.60;83.24
75088;HTU21D;63664;44.868;40.600;2023-09-19T03:58:26;10.64;83.26
75088;HTU21D;63664;44.868;40.600;2023-09-19T04:00:56;10.69;83.39
75088;HTU21D;63664;44.868;40.600;2023-09-19T04:03:24;10.75;83.32
75088;HTU21D;63664;44.868;40.600;2023-09-19T04:06:01;10.82;83.27
75088;HTU21D;63664;44.868;40.600;2023-09-19T04:08:28;10.87;83.33
75088;HTU21D;63664;44.868;40.600;2023-09-19T04:10:58;10.97;83.41
75088;HTU21D;63664;44.868;40.600;2023-09-19T04:13:26;11.03;83.34
75088;HTU21D;63664;44.868;40.600;2023-09-19T04:15:53;11.08;83.45
75088;HTU21D;63664;44.868;40.600;2023-09-19T04:18:19;11.13;83.60
75088;HTU21D;63664;44.868;40.600;2023-09-19T04:20:49;11.18;83.76
75088;HTU21D;63664;44.868;40.600;2023-09-19T04:23:19;11.26;83.82
75088;HTU21D;63664;44.868;40.600;2023-09-19T04:25:48;11.36;83.77
75088;HTU21D;63664;44.868;40.600;2023-09-19T04:28:18;11.47;83.75
75088;HTU21D;63664;44.868;40.600;2023-09-19T04:30:51;11.59;83.65
75088;HTU21D;63664;44.868;40.600;2023-09-19T06:27:54;19.75;64.27
75088;HTU21D;63664;44.868;40.600;2023-09-19T06:30:23;19.88;63.61
75088;HTU21D;63664;44.868;40.600;2023-09-19T06:32:59;20.06;62.63
75088;HTU21D;63664;44.868;40.600;2023-09-19T06:35:32;20.24;61.97
75088;HTU21D;63664;44.868;40.600;2023-09-19T06:38:02;20.43;61.53
75088;HTU21D;63664;44.868;40.600;2023-09-19T06:40:29;20.60;60.99
75088;HTU21D;63664;44.868;40.600;2023-09-19T06:42:57;20.79;60.48
75088;HTU21D;63664;44.868;40.600;2023-09-19T06:45:35;20.96;59.51
75088;HTU21D;63664;44.868;40.600;2023-09-19T06:48:07;21.09;59.15
75088;HTU21D;63664;44.868;40.600;2023-09-19T06:50:35;21.22;58.45
75088;HTU21D;63664;44.868;40.600;2023-09-19T06:53:02;21.28;57.90
75088;HTU21D;63664;44.868;40.600;2023-09-19T06:55:28;21.37;57.28
75088;HTU21D;63664;44.868;40.600;2023-09-19T06:58:00;21.46;57.01
75088;HTU21D;63664;44.868;40.600;2023-09-19T07:00:31;21.60;56.49
75088;HTU21D;63664;44.868;40.600;2023-09-19T07:03:04;21.74;55.78
75088;HTU21D;63664;44.868;40.600;2023-09-19T07:05:38;21.88;55.15
75088;HTU21D;63664;44.868;40.600;2023-09-19T07:08:07;21.98;54.70
75088;HTU21D;63664;44.868;40.600;2023-09-19T07:10:34;22.08;54.24
75088;HTU21D;63664;44.868;40.600;2023-09-19T07:13:04;22.18;53.84
75088;HTU21D;63664;44.868;40.600;2023-09-19T07:15:41;22.35;53.72
75088;HTU21D;63664;44.868;40.600;2023-09-19T07:18:14;22.50;52.91
75088;HTU21D;63664;44.868;40.600;2023-09-19T07:20:44;22.58;52.56
75088;HTU21D;63664;44.868;40.600;2023-09-19T07:23:23;22.75;52.02
75088;HTU21D;63664;44.868;40.600;2023-09-19T07:25:52;22.86;51.70
75088;HTU21D;63664;44.868;40.600;2023-09-19T07:28:21;22.91;51.11
75088;HTU21D;63664;44.868;40.600;2023-09-19T07:30:51;22.97;50.91
75088;HTU21D;63664;44.868;40.600;2023-09-19T07:33:18;23.02;50.11
75088;HTU21D;63664;44.868;40.600;2023-09-19T07:35:50;23.14;49.81
75088;HTU21D;63664;44.868;40.600;2023-09-19T07:38:19;23.27;49.49
75088;HTU21D;63664;44.868;40.600;2023-09-19T07:40:49;23.45;49.05
75088;HTU21D;63664;44.868;40.600;2023-09-19T07:43:20;23.59;48.00
75088;HTU21D;63664;44.868;40.600;2023-09-19T07:45:46;23.66;47.92
75088;HTU21D;63664;44.868;40.600;2023-09-19T07:48:19;23.80;47.63
75088;HTU21D;63664;44.868;40.600;2023-09-19T07:50:50;23.97;47.29
75088;HTU21D;63664;44.868;40.600;2023-09-19T07:53:17;24.05;46.83
75088;HTU21D;63664;44.868;40.600;2023-09-19T07:55:48;24.11;46.12
75088;HTU21D;63664;44.868;40.600;2023-09-19T07:58:18;24.17;46.10
75088;HTU21D;63664;44.868;40.600;2023-09-19T08:00:49;24.23;45.34
75088;HTU21D;63664;44.868;40.600;2023-09-19T08:03:15;24.28;44.86
75088;HTU21D;63664;44.868;40.600;2023-09-19T08:05:48;24.36;44.84
75088;HTU21D;63664;44.868;40.600;2023-09-19T08:08:15;24.50;44.52
75088;HTU21D;63664;44.868;40.600;2023-09-19T08:10:42;24.70;43.84
75088;HTU21D;63664;44.868;40.600;2023-09-19T08:13:14;24.82;43.81
75088;HTU21D;63664;44.868;40.600;2023-09-19T08:15:44;24.99;43.59
75088;HTU21D;63664;44.868;40.600;2023-09-19T08:18:12;25.05;43.32
75088;HTU21D;63664;44.868;40.600;2023-09-19T08:20:41;25.15;43.08
75088;HTU21D;63664;44.868;40.600;2023-09-19T08:23:13;25.28;42.49
75088;HTU21D;63664;44.868;40.600;2023-09-19T08:25:44;25.31;41.95
75088;HTU21D;63664;44.868;40.600;2023-09-19T08:28:14;25.36;42.21
75088;HTU21D;63664;44.868;40.600;2023-09-19T08:30:48;25.47;42.04
75088;HTU21D;63664;44.868;40.600;2023-09-19T08:33:18;25.54;41.73
75088;HTU21D;63664;44.868;40.600;2023-09-19T08:35:50;25.60;41.74
75088;HTU21D;63664;44.868;40.600;2023-09-19T08:38:19;25.69;41.29
75088;HTU21D;63664;44.868;40.600;2023-09-19T08:40:48;25.78;41.87
75088;HTU21D;63664;44.868;40.600;2023-09-19T08:43:14;25.79;41.52
75088;HTU21D;63664;44.868;40.600;2023-09-19T08:45:41;25.87;41.07
75088;HTU21D;63664;44.868;40.600;2023-09-19T08:51:09;25.94;40.16
75088;HTU21D;63664;44.868;40.600;2023-09-19T08:54:07;26.06;39.73
75088;HTU21D;63664;44.868;40.600;2023-09-19T08:56:40;26.16;39.04
75088;HTU21D;63664;44.868;40.600;2023-09-19T08:59:08;26.30;39.01
75088;HTU21D;63664;44.868;40.600;2023-09-19T09:01:41;26.47;38.72
75088;HTU21D;63664;44.868;40.600;2023-09-19T09:04:09;26.64;38.53
75088;HTU21D;63664;44.868;40.600;2023-09-19T09:06:42;26.78;38.20
75088;HTU21D;63664;44.868;40.600;2023-09-19T09:09:11;26.76;37.58
75088;HTU21D;63664;44.868;40.600;2023-09-19T09:11:38;26.76;37.56
75088;HTU21D;63664;44.868;40.600;2023-09-19T09:14:10;26.99;37.56
75088;HTU21D;63664;44.868;40.600;2023-09-19T09:16:41;27.14;36.85
75088;HTU21D;63664;44.868;40.600;2023-09-19T09:19:10;27.13;36.79
75088;HTU21D;63664;44.868;40.600;2023-09-19T09:21:47;27.12;36.59
75088;HTU21D;63664;44.868;40.600;2023-09-19T09:24:29;27.24;36.53
75088;HTU21D;63664;44.868;40.600;2023-09-19T09:27:06;27.34;36.14
75088;HTU21D;63664;44.868;40.600;2023-09-19T09:29:51;27.39;36.07
75088;HTU21D;63664;44.868;40.600;2023-09-19T09:34:57;27.44;35.79
75088;HTU21D;63664;44.868;40.600;2023-09-19T09:37:27;27.54;35.69
75088;HTU21D;63664;44.868;40.600;2023-09-19T09:40:03;27.56;35.28
75088;HTU21D;63664;44.868;40.600;2023-09-19T09:42:45;27.53;34.97
75088;HTU21D;63664;44.868;40.600;2023-09-19T09:45:21;27.51;34.79
75088;HTU21D;63664;44.868;40.600;2023-09-19T09:48:09;27.51;34.77
75088;HTU21D;63664;44.868;40.600;2023-09-19T09:50:51;27.65;34.34
75088;HTU21D;63664;44.868;40.600;2023-09-19T09:53:38;27.61;34.02
75088;HTU21D;63664;44.868;40.600;2023-09-19T09:56:15;27.56;34.34
75088;HTU21D;63664;44.868;40.600;2023-09-19T09:58:56;27.71;34.25
75088;HTU21D;63664;44.868;40.600;2023-09-19T10:01:47;27.83;34.02
75088;HTU21D;63664;44.868;40.600;2023-09-19T10:04:34;27.78;33.78
75088;HTU21D;63664;44.868;40.600;2023-09-19T10:07:06;27.87;33.79
75088;HTU21D;63664;44.868;40.600;2023-09-19T10:09:49;28.06;33.22
75088;HTU21D;63664;44.868;40.600;2023-09-19T10:12:20;28.16;33.31
75088;HTU21D;63664;44.868;40.600;2023-09-19T10:15:02;28.15;32.96
75088;HTU21D;63664;44.868;40.600;2023-09-19T10:17:34;28.17;33.10
75088;HTU21D;63664;44.868;40.600;2023-09-19T10:20:06;28.24;32.93
75088;HTU21D;63664;44.868;40.600;2023-09-19T10:22:46;28.35;32.82
75088;HTU21D;63664;44.868;40.600;2023-09-19T10:25:36;28.24;32.66
75088;HTU21D;63664;44.868;40.600;2023-09-19T10:28:21;28.23;32.24
75088;HTU21D;63664;44.868;40.600;2023-09-19T10:30:59;28.19;32.28
75088;HTU21D;63664;44.868;40.600;2023-09-19T10:33:36;28.24;32.21
75088;HTU21D;63664;44.868;40.600;2023-09-19T10:36:12;28.30;31.96
75088;HTU21D;63664;44.868;40.600;2023-09-19T10:38:47;28.19;31.61
75088;HTU21D;63664;44.868;40.600;2023-09-19T10:41:22;28.12;31.64
75088;HTU21D;63664;44.868;40.600;2023-09-19T10:43:57;28.08;31.34
75088;HTU21D;63664;44.868;40.600;2023-09-19T10:46:26;28.06;31.50
75088;HTU21D;63664;44.868;40.600;2023-09-19T10:49:03;28.01;31.25
75088;HTU21D;63664;44.868;40.600;2023-09-19T10:51:42;27.98;31.41
75088;HTU21D;63664;44.868;40.600;2023-09-19T10:54:21;28.01;30.99
75088;HTU21D;63664;44.868;40.600;2023-09-19T10:56:57;27.93;30.71
75088;HTU21D;63664;44.868;40.600;2023-09-19T11:00:04;27.82;30.81
75088;HTU21D;63664;44.868;40.600;2023-09-19T11:03:24;27.71;31.03
75088;HTU21D;63664;44.868;40.600;2023-09-19T11:06:17;27.71;31.20
75088;HTU21D;63664;44.868;40.600;2023-09-19T11:14:37;27.60;30.30
75088;HTU21D;63664;44.868;40.600;2023-09-19T11:30:55;27.73;30.08
75088;HTU21D;63664;44.868;40.600;2023-09-19T11:33:32;27.73;29.84
75088;HTU21D;63664;44.868;40.600;2023-09-19T11:36:17;27.59;29.64
75088;HTU21D;63664;44.868;40.600;2023-09-19T11:39:00;27.50;29.58
75088;HTU21D;63664;44.868;40.600;2023-09-19T11:41:40;27.50;29.41
75088;HTU21D;63664;44.868;40.600;2023-09-19T11:46:58;27.36;29.33
75088;HTU21D;63664;44.868;40.600;2023-09-19T11:49:35;27.36;29.55
75088;HTU21D;63664;44.868;40.600;2023-09-19T11:52:22;27.39;29.60
75088;HTU21D;63664;44.868;40.600;2023-09-19T11:54:58;27.41;29.64
75088;HTU21D;63664;44.868;40.600;2023-09-19T11:57:32;27.42;29.58
75088;HTU21D;63664;44.868;40.600;2023-09-19T12:00:02;27.43;29.48
75088;HTU21D;63664;44.868;40.600;2023-09-19T12:03:02;27.37;29.17
75088;HTU21D;63664;44.868;40.600;2023-09-19T12:05:49;27.32;29.26
75088;HTU21D;63664;44.868;40.600;2023-09-19T12:08:35;27.29;29.22
75088;HTU21D;63664;44.868;40.600;2023-09-19T12:11:16;27.21;29.06
75088;HTU21D;63664;44.868;40.600;2023-09-19T12:13:47;27.19;28.97
75088;HTU21D;63664;44.868;40.600;2023-09-19T12:16:36;27.12;29.11
75088;HTU21D;63664;44.868;40.600;2023-09-19T12:19:32;27.12;29.26
75088;HTU21D;63664;44.868;40.600;2023-09-19T12:22:08;27.07;29.12
75088;HTU21D;63664;44.868;40.600;2023-09-19T12:24:42;26.99;29.23
75088;HTU21D;63664;44.868;40.600;2023-09-19T12:27:17;26.94;29.38
75088;HTU21D;63664;44.868;40.600;2023-09-19T12:29:55;26.93;29.35
75088;HTU21D;63664;44.868;40.600;2023-09-19T12:32:46;26.92;29.44
75088;HTU21D;63664;44.868;40.600;2023-09-19T12:35:31;26.86;29.42
75088;HTU21D;63664;44.868;40.600;2023-09-19T12:38:24;26.81;29.48
75088;HTU21D;63664;44.868;40.600;2023-09-19T12:40:58;26.73;29.55
75088;HTU21D;63664;44.868;40.600;2023-09-19T12:43:35;26.67;29.55
75088;HTU21D;63664;44.868;40.600;2023-09-19T12:46:04;26.57;29.51
75088;HTU21D;63664;44.868;40.600;2023-09-19T12:48:37;26.51;29.63
75088;HTU21D;63664;44.868;40.600;2023-09-19T12:51:18;26.46;29.45
75088;HTU21D;63664;44.868;40.600;2023-09-19T12:54:11;26.41;29.45
75088;HTU21D;63664;44.868;40.600;2023-09-19T12:56:42;26.37;29.52
75088;HTU21D;63664;44.868;40.600;2023-09-19T12:59:39;26.30;29.55
75088;HTU21D;63664;44.868;40.600;2023-09-19T13:02:22;26.23;29.42
75088;HTU21D;63664;44.868;40.600;2023-09-19T13:04:53;26.13;29.51
75088;HTU21D;63664;44.868;40.600;2023-09-19T13:07:42;26.07;29.58
75088;HTU21D;63664;44.868;40.600;2023-09-19T13:10:16;26.03;29.59
75088;HTU21D;63664;44.868;40.600;2023-09-19T13:12:48;25.99;29.81
75088;HTU21D;63664;44.868;40.600;2023-09-19T13:15:24;25.96;29.87
75088;HTU21D;63664;44.868;40.600;2023-09-19T13:18:01;25.93;29.78
75088;HTU21D;63664;44.868;40.600;2023-09-19T13:20:42;25.88;29.82
75088;HTU21D;63664;44.868;40.600;2023-09-19T13:23:30;25.82;30.05
75088;HTU21D;63664;44.868;40.600;2023-09-19T13:26:02;25.78;30.18
75088;HTU21D;63664;44.868;40.600;2023-09-19T13:28:40;25.72;30.11
75088;HTU21D;63664;44.868;40.600;2023-09-19T13:31:13;25.66;30.32
75088;HTU21D;63664;44.868;40.600;2023-09-19T13:33:50;25.61;30.52
75088;HTU21D;63664;44.868;40.600;2023-09-19T13:36:21;25.57;30.53
75088;HTU21D;63664;44.868;40.600;2023-09-19T13:38:51;25.47;30.50
75088;HTU21D;63664;44.868;40.600;2023-09-19T13:41:34;25.39;30.64
75088;HTU21D;63664;44.868;40.600;2023-09-19T13:44:03;25.31;30.73
75088;HTU21D;63664;44.868;40.600;2023-09-19T13:46:35;25.27;30.80
75088;HTU21D;63664;44.868;40.600;2023-09-19T13:49:02;25.21;30.61
75088;HTU21D;63664;44.868;40.600;2023-09-19T13:51:35;25.15;30.74
75088;HTU21D;63664;44.868;40.600;2023-09-19T13:54:04;25.12;30.89
75088;HTU21D;63664;44.868;40.600;2023-09-19T13:56:36;25.06;31.03
75088;HTU21D;63664;44.868;40.600;2023-09-19T13:59:04;25.03;31.01
75088;HTU21D;63664;44.868;40.600;2023-09-19T14:01:36;24.99;30.80
75088;HTU21D;63664;44.868;40.600;2023-09-19T14:04:06;24.94;30.99
75088;HTU21D;63664;44.868;40.600;2023-09-19T14:06:35;24.91;31.07
75088;HTU21D;63664;44.868;40.600;2023-09-19T14:09:09;24.87;31.12
75088;HTU21D;63664;44.868;40.600;2023-09-19T14:11:52;24.82;31.38
75088;HTU21D;63664;44.868;40.600;2023-09-19T14:14:29;24.77;31.32
75088;HTU21D;63664;44.868;40.600;2023-09-19T14:17:00;24.74;31.51
75088;HTU21D;63664;44.868;40.600;2023-09-19T14:19:31;24.68;31.56
75088;HTU21D;63664;44.868;40.600;2023-09-19T14:22:00;24.64;31.69
75088;HTU21D;63664;44.868;40.600;2023-09-19T14:24:34;24.60;31.75
75088;HTU21D;63664;44.868;40.600;2023-09-19T14:27:04;24.56;31.82
75088;HTU21D;63664;44.868;40.600;2023-09-19T14:29:33;24.50;31.86
75088;HTU21D;63664;44.868;40.600;2023-09-19T14:32:00;24.43;31.88
75088;HTU21D;63664;44.868;40.600;2023-09-19T14:34:33;24.38;31.71
75088;HTU21D;63664;44.868;40.600;2023-09-19T14:37:09;24.36;31.70
75088;HTU21D;63664;44.868;40.600;2023-09-19T14:39:37;24.30;31.83
75088;HTU21D;63664;44.868;40.600;2023-09-19T14:42:09;24.23;31.93
75088;HTU21D;63664;44.868;40.600;2023-09-19T14:44:36;24.17;32.11
75088;HTU21D;63664;44.868;40.600;2023-09-19T14:47:09;24.12;32.18
75088;HTU21D;63664;44.868;40.600;2023-09-19T14:49:43;24.05;32.24
75088;HTU21D;63664;44.868;40.600;2023-09-19T14:52:12;24.01;32.33
75088;HTU21D;63664;44.868;40.600;2023-09-19T14:54:42;23.95;32.39
75088;HTU21D;63664;44.868;40.600;2023-09-19T14:57:11;23.90;32.48
75088;HTU21D;63664;44.868;40.600;2023-09-19T14:59:46;23.85;32.58
75088;HTU21D;63664;44.868;40.600;2023-09-19T15:02:19;23.79;32.64
75088;HTU21D;63664;44.868;40.600;2023-09-19T15:04:49;23.74;32.74
75088;HTU21D;63664;44.868;40.600;2023-09-19T15:07:21;23.66;32.89
75088;HTU21D;63664;44.868;40.600;2023-09-19T15:09:50;23.59;33.02
75088;HTU21D;63664;44.868;40.600;2023-09-19T15:12:19;23.52;33.03
75088;HTU21D;63664;44.868;40.600;2023-09-19T15:14:49;23.45;33.25
75088;HTU21D;63664;44.868;40.600;2023-09-19T15:17:19;23.38;33.41
75088;HTU21D;63664;44.868;40.600;2023-09-19T15:19:51;23.32;33.54
75088;HTU21D;63664;44.868;40.600;2023-09-19T15:22:21;23.26;33.66
75088;HTU21D;63664;44.868;40.600;2023-09-19T15:24:48;23.20;33.81
75088;HTU21D;63664;44.868;40.600;2023-09-19T15:27:15;23.13;33.99
75088;HTU21D;63664;44.868;40.600;2023-09-19T15:29:48;23.05;34.16
75088;HTU21D;63664;44.868;40.600;2023-09-19T15:32:15;22.97;34.31
75088;HTU21D;63664;44.868;40.600;2023-09-19T15:34:47;22.88;34.47
75088;HTU21D;63664;44.868;40.600;2023-09-19T15:37:17;22.82;34.67
75088;HTU21D;63664;44.868;40.600;2023-09-19T15:39:47;22.75;34.91
75088;HTU21D;63664;44.868;40.600;2023-09-19T15:42:14;22.66;35.13
75088;HTU21D;63664;44.868;40.600;2023-09-19T15:44:42;22.53;35.36
75088;HTU21D;63664;44.868;40.600;2023-09-19T15:47:11;22.44;35.55
75088;HTU21D;63664;44.868;40.600;2023-09-19T15:49:39;22.36;35.76
75088;HTU21D;63664;44.868;40.600;2023-09-19T15:52:06;22.28;35.96
75088;HTU21D;63664;44.868;40.600;2023-09-19T15:54:34;22.19;36.14
75088;HTU21D;63664;44.868;40.600;2023-09-19T15:57:01;22.12;36.33
75088;HTU21D;63664;44.868;40.600;2023-09-19T15:59:35;22.05;36.42
75088;HTU21D;63664;44.868;40.600;2023-09-19T16:02:04;21.98;36.50
75088;HTU21D;63664;44.868;40.600;2023-09-19T16:04:31;21.90;36.66
75088;HTU21D;63664;44.868;40.600;2023-09-19T16:07:00;21.82;36.80
75088;HTU21D;63664;44.868;40.600;2023-09-19T16:09:32;21.77;37.09
75088;HTU21D;63664;44.868;40.600;2023-09-19T16:12:07;21.66;37.22
75088;HTU21D;63664;44.868;40.600;2023-09-19T16:14:41;21.57;37.56
75088;HTU21D;63664;44.868;40.600;2023-09-19T16:17:20;21.43;38.06
75088;HTU21D;63664;44.868;40.600;2023-09-19T16:19:48;21.32;38.38
75088;HTU21D;63664;44.868;40.600;2023-09-19T16:22:20;21.21;38.70
75088;HTU21D;63664;44.868;40.600;2023-09-19T16:24:52;21.08;39.16
75088;HTU21D;63664;44.868;40.600;2023-09-19T16:27:24;20.96;39.33
75088;HTU21D;63664;44.868;40.600;2023-09-19T16:29:51;20.86;39.65
75088;HTU21D;63664;44.868;40.600;2023-09-19T16:32:24;20.76;40.02
75088;HTU21D;63664;44.868;40.600;2023-09-19T16:34:54;20.63;40.31
75088;HTU21D;63664;44.868;40.600;2023-09-19T16:37:25;20.53;40.46
75088;HTU21D;63664;44.868;40.600;2023-09-19T16:40:03;20.44;40.68
75088;HTU21D;63664;44.868;40.600;2023-09-19T16:42:31;20.34;40.99
75088;HTU21D;63664;44.868;40.600;2023-09-19T16:44:58;20.25;41.31
75088;HTU21D;63664;44.868;40.600;2023-09-19T16:47:28;20.12;41.61
75088;HTU21D;63664;44.868;40.600;2023-09-19T16:50:04;20.00;41.85
75088;HTU21D;63664;44.868;40.600;2023-09-19T16:52:37;19.90;42.07
75088;HTU21D;63664;44.868;40.600;2023-09-19T16:55:06;19.84;42.19
75088;HTU21D;63664;44.868;40.600;2023-09-19T16:57:32;19.81;42.20
75088;HTU21D;63664;44.868;40.600;2023-09-19T16:59:59;19.76;42.15
75088;HTU21D;63664;44.868;40.600;2023-09-19T17:02:26;19.74;42.21
75088;HTU21D;63664;44.868;40.600;2023-09-19T17:05:01;19.67;42.23
75088;HTU21D;63664;44.868;40.600;2023-09-19T17:07:28;19.62;42.30
75088;HTU21D;63664;44.868;40.600;2023-09-19T17:09:58;19.61;42.32
75088;HTU21D;63664;44.868;40.600;2023-09-19T17:12:32;19.56;42.37
75088;HTU21D;63664;44.868;40.600;2023-09-19T17:15:03;19.53;42.50
75088;HTU21D;63664;44.868;40.600;2023-09-19T17:17:33;19.47;42.79
75088;HTU21D;63664;44.868;40.600;2023-09-19T17:20:02;19.39;43.04
75088;HTU21D;63664;44.868;40.600;2023-09-19T17:22:30;19.30;43.15
75088;HTU21D;63664;44.868;40.600;2023-09-19T17:24:57;19.25;43.29
75088;HTU21D;63664;44.868;40.600;2023-09-19T17:27:24;19.21;43.32
75088;HTU21D;63664;44.868;40.600;2023-09-19T17:29:51;19.14;43.48
75088;HTU21D;63664;44.868;40.600;2023-09-19T17:32:18;19.09;43.58
75088;HTU21D;63664;44.868;40.600;2023-09-19T17:34:47;19.03;43.57
75088;HTU21D;63664;44.868;40.600;2023-09-19T17:37:16;19.01;43.59
75088;HTU21D;63664;44.868;40.600;2023-09-19T17:39:45;18.99;43.66
75088;HTU21D;63664;44.868;40.600;2023-09-19T17:42:19;18.97;43.73
75088;HTU21D;63664;44.868;40.600;2023-09-19T17:44:45;18.92;43.81
75088;HTU21D;63664;44.868;40.600;2023-09-19T17:47:12;18.87;43.90
75088;HTU21D;63664;44.868;40.600;2023-09-19T17:49:39;18.85;43.93
75088;HTU21D;63664;44.868;40.600;2023-09-19T17:52:07;18.84;44.06
75088;HTU21D;63664;44.868;40.600;2023-09-19T17:54:38;18.81;43.97
75088;HTU21D;63664;44.868;40.600;2023-09-19T17:57:10;18.80;43.97
75088;HTU21D;63664;44.868;40.600;2023-09-19T17:59:43;18.79;44.03
75088;HTU21D;63664;44.868;40.600;2023-09-19T18:02:10;18.78;43.99
75088;HTU21D;63664;44.868;40.600;2023-09-19T18:04:37;18.77;44.07
75088;HTU21D;63664;44.868;40.600;2023-09-19T18:07:06;18.73;44.21
75088;HTU21D;63664;44.868;40.600;2023-09-19T18:09:38;18.68;44.33
75088;HTU21D;63664;44.868;40.600;2023-09-19T18:12:07;18.62;44.42